Time;durP1;ratioP1;P1;durP2;ratioP2;P2;SDS_P1;SDS_P2;PMS_P1;PMS_P2;Temp;Humidity;BMP_temperature;BMP_pressure;BME280_temperature;BME280_humidity;BME280_pressure;Samples;Min_cycle;Max_cycle;Signal;HPM_P1;HPM_P2
2022/07/07 00:01:17;;;;;;;3.35;1.70;;;;;;;21.40;48.69;102004.38;5104997;28;20051;-61
2022/07/07 00:03:45;;;;;;;4.45;1.95;;;;;;;21.38;48.84;101997.50;5088103;28;20045;-62
2022/07/07 00:06:15;;;;;;;4.40;1.88;;;;;;;21.38;49.08;101992.88;5086210;28;20151;-61
2022/07/07 00:08:43;;;;;;;6.88;1.90;;;;;;;21.37;49.34;101988.50;5096618;28;20115;-62
2022/07/07 00:11:11;;;;;;;2.47;1.52;;;;;;;21.36;49.11;101986.03;5105851;28;20055;-62
2022/07/07 00:13:40;;;;;;;3.17;1.90;;;;;;;21.35;49.31;101989.84;5105036;28;20041;-62
2022/07/07 00:16:08;;;;;;;3.58;2.00;;;;;;;21.34;49.09;101980.00;5105727;28;20387;-62
2022/07/07 00:18:36;;;;;;;3.90;1.75;;;;;;;21.34;49.44;101980.00;5090567;28;20532;-61
2022/07/07 00:21:04;;;;;;;3.35;2.50;;;;;;;21.32;49.51;101979.44;5102410;28;20068;-62
2022/07/07 00:23:33;;;;;;;2.88;1.80;;;;;;;21.30;49.52;101974.22;5100634;28;20044;-63
2022/07/07 00:26:01;;;;;;;3.67;1.70;;;;;;;21.26;49.81;101970.38;5102143;28;20076;-62
2022/07/07 00:28:29;;;;;;;2.65;1.77;;;;;;;21.28;49.54;101972.84;5100180;28;20181;-62
2022/07/07 00:30:57;;;;;;;2.75;1.90;;;;;;;21.26;49.94;101967.66;5106723;28;20039;-61
2022/07/07 00:33:25;;;;;;;3.25;1.80;;;;;;;21.25;49.97;101956.97;5095205;28;20105;-62
2022/07/07 00:35:54;;;;;;;3.38;1.85;;;;;;;21.25;49.75;101962.44;5104991;28;20586;-62
2022/07/07 00:38:23;;;;;;;6.70;1.90;;;;;;;21.24;49.97;101955.34;5100022;28;20060;-62
2022/07/07 00:40:53;;;;;;;3.10;2.00;;;;;;;21.22;50.09;101950.13;5087876;28;20055;-62
2022/07/07 00:43:21;;;;;;;1.83;1.40;;;;;;;21.20;50.07;101941.34;5094548;28;20040;-61
2022/07/07 00:45:50;;;;;;;3.80;2.38;;;;;;;21.21;50.48;101937.53;5097773;28;20055;-62
2022/07/07 00:48:19;;;;;;;2.63;2.00;;;;;;;21.13;50.18;101924.34;5093527;28;20048;-62
2022/07/07 00:50:48;;;;;;;4.63;1.90;;;;;;;21.18;50.67;101934.50;5104418;28;20048;-62
2022/07/07 00:53:16;;;;;;;3.35;1.95;;;;;;;21.17;50.71;101932.84;5094035;28;20123;-62
2022/07/07 00:55:44;;;;;;;3.45;1.90;;;;;;;21.16;50.47;101932.03;5101716;28;20055;-61
2022/07/07 00:58:13;;;;;;;2.95;2.05;;;;;;;21.16;50.69;101928.47;5091667;28;20052;-61
2022/07/07 01:00:42;;;;;;;3.75;1.90;;;;;;;21.14;50.70;101934.19;5098057;28;20133;-61
2022/07/07 01:03:10;;;;;;;4.13;1.70;;;;;;;21.13;50.87;101924.34;5107158;28;20056;-60
2022/07/07 01:05:41;;;;;;;3.15;2.10;;;;;;;21.11;51.04;101927.34;5089875;28;20052;-60
2022/07/07 01:08:10;;;;;;;3.50;2.03;;;;;;;21.10;51.08;101933.91;5112179;28;20047;-60
2022/07/07 01:10:38;;;;;;;7.03;1.90;;;;;;;21.09;51.23;101929.53;5093088;28;20048;-61
2022/07/07 01:13:06;;;;;;;5.07;2.10;;;;;;;21.07;51.53;101928.97;5084096;28;20048;-62
2022/07/07 01:15:35;;;;;;;2.95;2.42;;;;;;;21.07;51.58;101925.41;5093262;28;20185;-61
2022/07/07 01:18:03;;;;;;;3.45;2.00;;;;;;;21.07;51.64;101928.16;5089269;28;20497;-61
2022/07/07 01:20:31;;;;;;;3.88;1.85;;;;;;;21.05;51.42;101924.88;5085024;28;20080;-61
2022/07/07 01:23:01;;;;;;;4.80;1.80;;;;;;;21.05;51.49;101922.13;5109003;28;20040;-61
2022/07/07 01:25:28;;;;;;;2.30;2.03;;;;;;;21.05;51.31;101927.59;5092731;28;20409;-61
2022/07/07 01:27:56;;;;;;;4.47;2.10;;;;;;;21.05;51.74;101927.59;5107363;28;20061;-61
2022/07/07 01:30:25;;;;;;;4.65;2.05;;;;;;;20.99;51.68;101907.63;5102065;28;20056;-60
2022/07/07 01:32:52;;;;;;;2.00;1.67;;;;;;;21.03;51.56;101922.41;5090490;28;20044;-61
2022/07/07 01:35:20;;;;;;;4.35;1.80;;;;;;;21.03;51.71;101924.31;5100738;28;20055;-61
2022/07/07 01:37:48;;;;;;;3.67;2.30;;;;;;;21.02;51.80;101926.22;5099668;28;20048;-61
2022/07/07 01:40:17;;;;;;;4.20;2.08;;;;;;;21.00;52.03;101919.38;5090536;28;20048;-61
2022/07/07 01:42:45;;;;;;;4.85;2.22;;;;;;;21.00;52.05;101908.44;5097214;28;20048;-61
2022/07/07 01:45:12;;;;;;;3.90;1.73;;;;;;;20.99;52.13;101904.88;5091655;28;20041;-61
2022/07/07 01:47:40;;;;;;;3.78;1.88;;;;;;;20.99;51.88;101901.31;5088874;28;20112;-61
2022/07/07 01:50:09;;;;;;;5.82;2.38;;;;;;;20.99;51.84;101898.59;5104594;28;20052;-61
2022/07/07 01:52:37;;;;;;;3.83;1.80;;;;;;;20.97;52.68;101896.13;5097768;28;20056;-61
2022/07/07 01:55:06;;;;;;;3.03;1.80;;;;;;;20.93;52.58;101889.53;5085724;28;20099;-61
2022/07/07 01:57:36;;;;;;;2.55;1.80;;;;;;;20.96;52.13;101891.75;5098352;28;20055;-61
2022/07/07 02:00:04;;;;;;;4.07;2.03;;;;;;;20.91;52.60;101885.44;5090451;28;20071;-61
2022/07/07 02:02:32;;;;;;;5.28;1.77;;;;;;;20.95;52.40;101890.09;5091600;28;20048;-61
2022/07/07 02:05:00;;;;;;;3.33;1.88;;;;;;;20.94;52.79;101893.09;5102802;28;20387;-61
2022/07/07 02:07:28;;;;;;;4.63;2.40;;;;;;;20.92;52.79;101904.28;5093830;28;20056;-61
2022/07/07 02:09:56;;;;;;;4.15;1.95;;;;;;;20.92;52.81;101898.00;5108331;28;20067;-61
2022/07/07 02:12:23;;;;;;;3.95;2.03;;;;;;;20.90;52.99;101897.44;5090251;28;20085;-60
2022/07/07 02:14:52;;;;;;;3.97;2.17;;;;;;;20.88;53.24;101894.97;5107150;28;20072;-61
2022/07/07 02:17:20;;;;;;;4.68;2.00;;;;;;;20.88;53.62;101894.16;5099941;28;20059;-61
2022/07/07 02:19:48;;;;;;;4.85;2.42;;;;;;;20.87;53.48;101893.34;5092662;28;20048;-61
2022/07/07 02:22:16;;;;;;;3.50;1.60;;;;;;;20.86;53.55;101893.59;5101114;28;20063;-61
2022/07/07 02:24:46;;;;;;;5.25;1.95;;;;;;;20.85;53.44;101894.69;5115337;28;20544;-61
2022/07/07 02:27:14;;;;;;;4.38;1.98;;;;;;;20.83;53.31;101889.50;5091651;28;20047;-61
2022/07/07 02:29:42;;;;;;;3.05;1.83;;;;;;;20.83;53.42;101889.50;5107737;28;20067;-61
2022/07/07 02:32:11;;;;;;;3.85;1.90;;;;;;;20.83;53.03;101889.50;5092040;28;20048;-61
2022/07/07 02:34:39;;;;;;;5.60;1.98;;;;;;;20.83;53.26;101885.94;5100556;28;20041;-60
2022/07/07 02:37:07;;;;;;;4.13;2.03;;;;;;;20.83;53.25;101880.47;5100348;28;20085;-60
2022/07/07 02:39:34;;;;;;;5.13;2.10;;;;;;;20.83;53.37;101878.56;5102671;28;20367;-61
2022/07/07 02:42:02;;;;;;;2.70;2.17;;;;;;;20.81;53.44;101880.75;5085151;28;20398;-61
2022/07/07 02:44:30;;;;;;;3.90;2.17;;;;;;;20.80;53.28;101870.94;5085809;28;20063;-62
2022/07/07 02:46:57;;;;;;;4.50;1.90;;;;;;;20.80;53.20;101876.38;5097631;28;20067;-62
2022/07/07 02:49:27;;;;;;;3.28;2.13;;;;;;;20.79;53.58;101880.22;5089392;28;20044;-61
2022/07/07 02:51:57;;;;;;;3.20;2.25;;;;;;;20.78;53.58;101875.84;5096916;28;20076;-61
2022/07/07 02:54:25;;;;;;;5.05;1.95;;;;;;;20.78;53.60;101878.56;5092723;28;20108;-61
2022/07/07 02:56:52;;;;;;;3.80;1.98;;;;;;;20.77;53.78;101877.75;5083396;28;20067;-61
2022/07/07 02:59:20;;;;;;;3.67;1.98;;;;;;;20.75;53.64;101874.44;5100671;28;20053;-62
2022/07/07 03:01:48;;;;;;;3.60;1.88;;;;;;;20.76;53.49;101878.00;5095462;28;20083;-61
2022/07/07 03:04:16;;;;;;;3.78;1.80;;;;;;;20.75;53.55;101890.03;5096481;28;20413;-61
2022/07/07 03:06:45;;;;;;;4.03;2.00;;;;;;;20.76;53.83;101886.19;5103648;28;20067;-62
2022/07/07 03:09:13;;;;;;;5.60;2.28;;;;;;;20.74;53.44;101877.44;5108117;28;20052;-62
2022/07/07 03:11:41;;;;;;;3.03;1.80;;;;;;;20.75;53.46;101877.19;5095419;28;20123;-61
2022/07/07 03:14:08;;;;;;;4.78;1.88;;;;;;;20.75;53.73;101874.44;5097816;28;20097;-61
2022/07/07 03:16:36;;;;;;;4.68;2.00;;;;;;;20.73;53.73;101873.06;5089374;28;20052;-61
2022/07/07 03:19:04;;;;;;;5.20;2.13;;;;;;;20.73;53.77;101870.34;5100282;28;20075;-62
2022/07/07 03:21:32;;;;;;;3.97;1.92;;;;;;;20.72;53.89;101874.97;5099633;28;20060;-62
2022/07/07 03:24:01;;;;;;;3.42;1.92;;;;;;;20.69;54.03;101869.22;5103372;28;20515;-62
2022/07/07 03:26:29;;;;;;;2.83;2.00;;;;;;;20.72;53.87;101880.44;5090459;28;20067;-61
2022/07/07 03:28:57;;;;;;;6.43;2.10;;;;;;;20.70;54.35;101881.78;5093935;28;20073;-61
2022/07/07 03:31:25;;;;;;;5.38;1.92;;;;;;;20.70;54.12;101877.16;5091653;28;20048;-61
2022/07/07 03:33:53;;;;;;;5.45;1.80;;;;;;;20.69;54.58;101883.72;5092002;28;20072;-62
2022/07/07 03:36:21;;;;;;;4.80;1.88;;;;;;;20.68;55.17;101879.34;5101264;28;20534;-62
2022/07/07 03:38:49;;;;;;;4.18;1.98;;;;;;;20.66;55.20;101883.41;5096799;28;20040;-62
2022/07/07 03:41:18;;;;;;;5.68;1.92;;;;;;;20.64;55.39;101878.22;5102743;28;20070;-61
2022/07/07 03:43:46;;;;;;;4.28;2.05;;;;;;;20.63;56.19;101882.03;5096126;28;20043;-62
2022/07/07 03:46:14;;;;;;;3.58;1.75;;;;;;;20.63;56.41;101883.94;5107505;28;20044;-62
2022/07/07 03:48:41;;;;;;;4.00;1.90;;;;;;;20.61;56.61;101884.19;5109476;28;20047;-61
2022/07/07 03:51:09;;;;;;;6.35;2.15;;;;;;;20.59;56.86;101880.91;5103524;28;20045;-61
2022/07/07 03:53:37;;;;;;;3.70;1.70;;;;;;;20.58;57.45;101889.38;5105830;28;20485;-61
2022/07/07 03:56:05;;;;;;;3.10;1.25;;;;;;;20.55;57.74;101889.91;5100212;28;20116;-61
2022/07/07 03:58:34;;;;;;;3.45;1.67;;;;;;;20.52;57.81;101906.81;5093140;28;20048;-61
2022/07/07 04:01:02;;;;;;;2.53;1.50;;;;;;;20.48;58.49;101903.78;5095568;28;20040;-61
2022/07/07 04:03:30;;;;;;;2.65;1.50;;;;;;;20.46;58.50;101905.94;5105683;28;20162;-61
2022/07/07 04:05:58;;;;;;;4.93;1.40;;;;;;;20.44;59.00;101903.47;5096377;28;20055;-61
2022/07/07 04:08:26;;;;;;;2.95;1.35;;;;;;;20.43;58.93;101901.00;5104329;28;20121;-61
2022/07/07 04:10:53;;;;;;;4.28;1.40;;;;;;;20.42;59.08;101905.66;5091048;28;20073;-61
2022/07/07 04:13:21;;;;;;;2.75;1.42;;;;;;;20.41;58.84;101900.44;5102402;28;20048;-61
2022/07/07 04:15:50;;;;;;;4.57;1.50;;;;;;;20.39;59.19;101897.16;5091127;28;20044;-62
2022/07/07 04:18:18;;;;;;;2.88;1.30;;;;;;;20.38;59.00;101896.34;5086002;28;20411;-61
2022/07/07 04:20:46;;;;;;;2.78;1.55;;;;;;;20.39;58.55;101888.97;5104747;28;20358;-64
2022/07/07 04:23:14;;;;;;;2.13;1.02;;;;;;;20.37;58.42;101882.91;5106710;28;20052;-61
2022/07/07 04:25:42;;;;;;;2.65;1.20;;;;;;;20.37;58.24;101886.47;5101233;28;20055;-61
2022/07/07 04:28:10;;;;;;;2.75;1.00;;;;;;;20.38;58.31;101884.56;5107558;28;20128;-61
2022/07/07 04:30:37;;;;;;;4.15;1.58;;;;;;;20.38;58.25;101887.28;5099705;28;20523;-61
2022/07/07 04:33:07;;;;;;;2.25;1.48;;;;;;;20.34;57.99;101878.78;5093085;28;20044;-62
2022/07/07 04:35:35;;;;;;;2.47;1.27;;;;;;;20.37;58.14;101883.75;5102291;28;20048;-62
2022/07/07 04:38:02;;;;;;;1.83;1.38;;;;;;;20.34;58.14;101881.53;5101256;28;20048;-61
2022/07/07 04:40:30;;;;;;;2.70;1.20;;;;;;;20.33;58.23;101881.78;5089527;28;20074;-61
2022/07/07 04:42:58;;;;;;;3.33;1.42;;;;;;;20.32;58.22;101880.16;5098102;28;20053;-62
2022/07/07 04:45:28;;;;;;;3.67;1.38;;;;;;;20.32;57.95;101880.16;5098118;28;20040;-62
2022/07/07 04:47:56;;;;;;;1.95;0.98;;;;;;;20.31;58.25;101889.41;5101110;28;20074;-62
2022/07/07 04:50:25;;;;;;;2.78;0.98;;;;;;;20.29;57.87;101895.13;5105780;28;20067;-61
2022/07/07 04:52:54;;;;;;;2.78;1.25;;;;;;;20.28;57.91;101896.22;5100472;28;20082;-62
2022/07/07 04:55:22;;;;;;;5.18;1.20;;;;;;;20.28;58.26;101901.69;5095372;28;20496;-63
2022/07/07 04:57:50;;;;;;;4.28;1.20;;;;;;;20.28;58.49;101906.31;5094235;28;20078;-65
2022/07/07 05:00:18;;;;;;;3.05;1.10;;;;;;;20.28;58.44;101911.78;5088466;28;20048;-62
2022/07/07 05:02:46;;;;;;;3.13;1.30;;;;;;;20.25;58.22;101912.31;5107494;28;20082;-62
2022/07/07 05:05:14;;;;;;;6.38;1.75;;;;;;;20.22;59.45;101915.56;5113102;28;20147;-62
2022/07/07 05:07:43;;;;;;;3.50;1.30;;;;;;;20.20;59.63;101925.91;5093132;28;20143;-62
2022/07/07 05:10:11;;;;;;;2.40;1.10;;;;;;;20.17;59.86;101926.44;5088530;28;20052;-62
2022/07/07 05:12:39;;;;;;;3.72;1.23;;;;;;;20.12;60.09;101925.31;5091537;28;20093;-62
2022/07/07 05:15:07;;;;;;;3.00;1.17;;;;;;;20.12;60.23;101932.66;5095455;28;20079;-62
2022/07/07 05:17:36;;;;;;;4.60;1.70;;;;;;;20.08;60.25;101926.06;5105635;28;20052;-62
2022/07/07 05:20:05;;;;;;;2.80;1.50;;;;;;;20.07;60.54;101941.63;5104478;28;20092;-62
2022/07/07 05:22:32;;;;;;;2.65;1.08;;;;;;;20.05;60.60;101937.50;5092310;28;20072;-61
2022/07/07 05:25:01;;;;;;;1.30;0.93;;;;;;;20.04;60.58;101949.50;5106791;28;20316;-60
2022/07/07 05:27:29;;;;;;;2.08;1.13;;;;;;;20.03;60.30;101954.16;5103796;28;20048;-62
2022/07/07 05:29:57;;;;;;;1.77;1.20;;;;;;;20.01;59.96;101948.13;5087738;28;20074;-61
2022/07/07 05:32:25;;;;;;;3.28;1.00;;;;;;;19.98;60.39;101945.91;5086050;28;20055;-60
2022/07/07 05:34:53;;;;;;;4.00;1.13;;;;;;;19.98;60.61;101945.09;5106688;28;20433;-62
2022/07/07 05:37:20;;;;;;;7.18;1.40;;;;;;;19.95;60.41;101949.16;5107964;28;20047;-61
2022/07/07 05:39:48;;;;;;;9.38;1.65;;;;;;;19.95;60.48;101959.25;5094134;28;20138;-61
2022/07/07 05:42:18;;;;;;;2.08;1.02;;;;;;;19.94;60.36;101961.16;5100659;28;20051;-61
2022/07/07 05:44:45;;;;;;;4.30;1.10;;;;;;;19.94;60.24;101960.31;4750037;28;9999871;-60
2022/07/07 05:47:13;;;;;;;2.30;0.70;;;;;;;19.94;60.48;101965.78;5093446;28;20055;-61
2022/07/07 05:49:41;;;;;;;3.47;1.35;;;;;;;19.92;60.71;101959.75;5095866;28;20082;-62
2022/07/07 05:52:09;;;;;;;3.15;0.98;;;;;;;19.90;60.56;101975.56;5102932;28;20075;-63
2022/07/07 05:54:37;;;;;;;2.97;1.13;;;;;;;19.88;60.71;101975.00;5086925;28;20080;-63
2022/07/07 05:57:06;;;;;;;1.92;0.80;;;;;;;19.86;61.00;101983.44;5097245;28;20055;-62
2022/07/07 05:59:35;;;;;;;3.80;1.08;;;;;;;19.85;60.84;101984.50;5100542;28;20052;-61
2022/07/07 06:02:03;;;;;;;4.05;1.33;;;;;;;19.79;60.93;101980.06;5092515;28;20055;-61
2022/07/07 06:04:31;;;;;;;1.92;1.15;;;;;;;19.82;61.08;101982.28;5088586;28;20381;-61
2022/07/07 06:06:58;;;;;;;4.75;1.17;;;;;;;19.80;60.96;101988.00;5091640;28;20045;-61
2022/07/07 06:09:26;;;;;;;3.05;0.80;;;;;;;19.81;60.91;102000.56;5095240;28;20438;-61
2022/07/07 06:11:54;;;;;;;3.22;1.00;;;;;;;19.81;61.00;101997.00;5082270;28;20561;-60
2022/07/07 06:14:22;;;;;;;5.95;1.33;;;;;;;19.82;60.84;102004.94;5098094;28;20055;-63
2022/07/07 06:16:51;;;;;;;3.70;1.40;;;;;;;19.77;60.64;101999.44;5106501;28;20047;-62
2022/07/07 06:19:19;;;;;;;2.25;0.90;;;;;;;19.75;61.13;102012.50;5100633;28;20044;-62
2022/07/07 06:21:47;;;;;;;2.13;1.00;;;;;;;19.77;60.71;102018.53;5096778;28;20115;-62
2022/07/07 06:24:16;;;;;;;5.22;1.05;;;;;;;19.76;60.89;102024.25;5095369;28;20470;-62
2022/07/07 06:26:44;;;;;;;6.82;1.63;;;;;;;19.73;60.45;102032.94;5105962;28;20083;-64
2022/07/07 06:29:11;;;;;;;7.03;1.77;;;;;;;19.70;60.36;102036.16;5102275;28;20052;-62
2022/07/07 06:31:39;;;;;;;14.05;1.77;;;;;;;19.65;59.65;102038.81;5107338;28;20063;-62
2022/07/07 06:34:08;;;;;;;6.50;1.55;;;;;;;19.61;59.91;102037.69;5091243;28;20055;-62
2022/07/07 06:36:36;;;;;;;6.00;1.50;;;;;;;19.57;59.68;102051.00;5103816;28;20358;-62
2022/07/07 06:39:04;;;;;;;7.20;1.63;;;;;;;19.56;59.53;102051.25;5094079;28;20052;-62
2022/07/07 06:41:36;;;;;;;8.35;1.90;;;;;;;19.54;59.41;102054.22;5098318;28;20068;-62
2022/07/07 06:44:05;;;;;;;8.50;1.63;;;;;;;19.53;59.10;102040.84;5092933;28;20056;-62
2022/07/07 06:46:33;;;;;;;8.40;1.88;;;;;;;19.51;59.17;102046.53;5098445;28;20041;-65
2022/07/07 06:49:01;;;;;;;6.63;1.55;;;;;;;19.55;58.88;102049.59;5101455;28;20052;-62
2022/07/07 06:51:30;;;;;;;7.82;2.17;;;;;;;19.54;58.89;102054.22;5091854;28;20075;-63
2022/07/07 06:53:58;;;;;;;6.95;1.77;;;;;;;19.50;58.60;102053.88;5104895;28;20072;-65
2022/07/07 06:56:26;;;;;;;6.63;1.48;;;;;;;19.57;58.32;102070.09;5099678;28;20075;-61
2022/07/07 06:58:54;;;;;;;7.00;1.80;;;;;;;19.57;58.37;102059.19;5101684;28;20075;-61
2022/07/07 07:01:22;;;;;;;6.93;1.88;;;;;;;19.58;58.08;102070.91;5101679;28;20060;-61
2022/07/07 07:03:50;;;;;;;10.50;2.22;;;;;;;19.60;58.11;102072.31;5099487;28;20117;-61
2022/07/07 07:06:19;;;;;;;6.93;2.35;;;;;;;19.53;58.00;102085.31;5106656;28;20044;-60
2022/07/07 07:08:49;;;;;;;6.35;2.00;;;;;;;19.58;58.01;102098.19;5104569;28;20044;-61
2022/07/07 07:11:16;;;;;;;5.63;2.33;;;;;;;19.52;58.62;102089.09;5104714;28;20051;-61
2022/07/07 07:13:47;;;;;;;9.00;1.73;;;;;;;19.31;58.59;102065.31;5104280;28;20044;-61
2022/07/07 07:16:16;;;;;;;7.05;1.48;;;;;;;19.42;58.54;102092.47;5105339;28;20052;-60
2022/07/07 07:18:44;;;;;;;5.22;1.55;;;;;;;19.42;58.65;102086.19;5104276;28;20044;-62
2022/07/07 07:21:12;;;;;;;4.75;1.70;;;;;;;19.41;58.51;102093.56;5103321;28;20053;-62
2022/07/07 07:23:40;;;;;;;8.52;2.55;;;;;;;19.42;58.66;102089.75;5106741;28;20454;-62
2022/07/07 07:26:10;;;;;;;3.65;1.10;;;;;;;19.43;58.35;102087.84;5101830;28;20052;-61
2022/07/07 07:28:38;;;;;;;3.67;1.35;;;;;;;19.42;58.30;102089.75;5104225;28;20075;-61
2022/07/07 07:31:06;;;;;;;6.65;1.00;;;;;;;19.45;58.09;102085.69;5105117;28;20068;-62
2022/07/07 07:33:35;;;;;;;7.40;1.88;;;;;;;19.45;57.90;102094.72;5100926;28;20048;-63
2022/07/07 07:36:07;;;;;;;6.10;1.30;;;;;;;19.47;57.87;102103.47;5107516;28;20044;-63
2022/07/07 07:38:37;;;;;;;3.72;1.25;;;;;;;19.50;57.93;102108.41;5104705;28;20075;-63
2022/07/07 07:41:06;;;;;;;3.92;1.10;;;;;;;19.53;57.79;102119.94;5105248;28;20040;-62
2022/07/07 07:43:35;;;;;;;6.20;1.45;;;;;;;19.53;57.78;102115.31;5103441;28;20043;-62
2022/07/07 07:46:08;;;;;;;5.40;2.58;;;;;;;19.54;57.64;102118.84;5105994;28;20482;-62
2022/07/07 07:48:36;;;;;;;3.47;1.30;;;;;;;19.55;57.64;102115.06;5105299;28;20066;-62
2022/07/07 07:51:04;;;;;;;6.57;2.33;;;;;;;19.55;57.59;102115.88;5102827;28;20059;-62
2022/07/07 07:53:32;;;;;;;4.72;1.40;;;;;;;19.54;57.43;102127.03;5102730;28;20089;-61
2022/07/07 07:56:00;;;;;;;6.38;2.00;;;;;;;19.48;57.45;102123.38;5105782;28;20052;-61
2022/07/07 07:58:27;;;;;;;4.97;1.48;;;;;;;19.45;57.24;102130.16;5099584;28;20036;-66
2022/07/07 08:00:56;;;;;;;6.95;1.55;;;;;;;19.43;57.11;102128.75;5105179;28;20056;-62
2022/07/07 08:03:24;;;;;;;7.40;1.80;;;;;;;19.38;57.39;102134.94;5102143;28;20127;-61
2022/07/07 08:05:53;;;;;;;8.45;1.77;;;;;;;19.36;57.60;102141.72;5105042;28;20062;-61
2022/07/07 08:08:20;;;;;;;6.50;1.58;;;;;;;19.36;58.05;102153.47;5105590;28;20048;-60
2022/07/07 08:10:48;;;;;;;5.72;1.77;;;;;;;19.33;58.58;102155.84;5103385;28;20040;-61
2022/07/07 08:13:16;;;;;;;7.43;1.45;;;;;;;19.29;59.17;102163.69;5101891;28;20125;-61
2022/07/07 08:15:44;;;;;;;6.53;2.08;;;;;;;19.22;59.64;102154.88;5102450;28;20039;-58
2022/07/07 08:18:13;;;;;;;6.50;1.58;;;;;;;19.20;59.33;102146.09;5105621;28;20055;-61
2022/07/07 08:20:41;;;;;;;6.55;1.95;;;;;;;19.21;59.14;102150.50;5103201;28;20051;-61
2022/07/07 08:23:09;;;;;;;5.45;1.40;;;;;;;19.22;59.14;102157.59;5102671;28;20078;-61
2022/07/07 08:25:37;;;;;;;2.83;1.10;;;;;;;19.24;58.92;102151.88;5101439;28;20052;-61
2022/07/07 08:28:05;;;;;;;5.25;1.58;;;;;;;19.25;58.59;102159.81;5101311;28;20078;-61
2022/07/07 08:30:33;;;;;;;4.00;1.13;;;;;;;19.27;58.64;102165.03;5102306;28;20048;-61
2022/07/07 08:33:00;;;;;;;5.55;1.40;;;;;;;19.29;58.55;102160.97;5102081;28;20082;-61
2022/07/07 08:35:29;;;;;;;5.88;1.40;;;;;;;19.31;58.45;102166.19;5104068;28;20071;-62
2022/07/07 08:37:59;;;;;;;7.25;1.20;;;;;;;19.31;58.46;102164.28;5102289;28;20063;-61
2022/07/07 08:40:35;;;;;;;4.78;1.25;;;;;;;19.32;58.09;102165.09;5104810;28;20074;-61
2022/07/07 08:43:07;;;;;;;4.40;1.40;;;;;;;19.34;58.09;102166.50;5101071;28;20043;-61
2022/07/07 08:45:35;;;;;;;4.38;1.10;;;;;;;19.36;57.88;102166.25;5100402;28;20070;-60
2022/07/07 08:48:03;;;;;;;4.55;1.45;;;;;;;19.37;57.87;102165.19;5104457;28;20047;-60
2022/07/07 08:50:34;;;;;;;5.88;1.13;;;;;;;19.38;57.89;102172.28;5106242;28;20151;-61
2022/07/07 08:53:02;;;;;;;6.43;1.70;;;;;;;19.36;57.93;102164.38;5115328;28;20086;-60
2022/07/07 08:55:32;;;;;;;3.05;1.30;;;;;;;19.36;58.19;102163.53;5096388;28;20044;-60
2022/07/07 08:58:00;;;;;;;7.93;2.33;;;;;;;19.31;58.46;102171.63;5103466;28;20068;-60
2022/07/07 09:00:28;;;;;;;4.80;1.15;;;;;;;19.28;58.42;102174.84;5085443;28;20078;-60
2022/07/07 09:02:57;;;;;;;5.63;1.55;;;;;;;19.23;58.29;102174.78;5099034;28;20064;-61
2022/07/07 09:05:25;;;;;;;6.07;1.70;;;;;;;19.27;58.21;102187.66;5103088;28;20055;-61
2022/07/07 09:07:55;;;;;;;11.70;2.28;;;;;;;19.26;58.20;102175.09;5104787;28;20044;-60
2022/07/07 09:10:31;;;;;;;5.72;1.45;;;;;;;19.28;57.99;102189.31;5101839;28;20370;-61
2022/07/07 09:12:59;;;;;;;5.90;1.67;;;;;;;19.30;58.00;102189.06;5103366;28;20081;-60
2022/07/07 09:15:27;;;;;;;6.13;2.05;;;;;;;19.28;57.90;102185.75;5100194;28;20044;-61
2022/07/07 09:17:56;;;;;;;3.88;1.42;;;;;;;19.26;57.83;102180.56;5102651;28;20051;-61
2022/07/07 09:20:24;;;;;;;4.95;1.73;;;;;;;19.27;57.72;102200.47;5100650;28;20052;-61
2022/07/07 09:22:53;;;;;;;6.15;1.48;;;;;;;19.23;57.78;102202.03;5102294;28;20052;-61
2022/07/07 09:25:31;;;;;;;3.53;1.27;;;;;;;19.20;57.65;102203.34;5100200;28;20059;-61
2022/07/07 09:28:01;;;;;;;3.55;1.40;;;;;;;19.19;57.57;102207.97;5100595;28;20058;-60
2022/07/07 09:30:35;;;;;;;4.55;1.50;;;;;;;19.14;57.16;102213.34;5093801;28;20453;-61
2022/07/07 09:33:05;;;;;;;6.22;1.63;;;;;;;19.11;57.43;102210.28;5097616;28;20052;-61
2022/07/07 09:38:23;;;;;;;3.33;1.23;;;;;;;19.13;57.27;102211.69;5096512;28;20049;-61
2022/07/07 09:40:59;;;;;;;10.40;1.60;;;;;;;19.15;57.24;102220.44;5109583;28;20048;-61
2022/07/07 09:43:29;;;;;;;3.78;1.20;;;;;;;19.08;57.22;102199.88;5096406;28;20070;-61
2022/07/07 09:46:15;;;;;;;7.03;1.90;;;;;;;19.21;57.14;102223.25;5104166;28;20124;-61
2022/07/07 09:48:45;;;;;;;5.78;1.35;;;;;;;19.21;57.48;102224.06;5100633;28;20126;-60
2022/07/07 09:51:14;;;;;;;4.35;1.77;;;;;;;19.21;57.07;102240.44;5113173;28;20051;-60
2022/07/07 09:54:01;;;;;;;6.50;1.48;;;;;;;19.20;57.12;102236.06;5092333;28;20063;-60
2022/07/07 09:56:32;;;;;;;5.47;1.23;;;;;;;19.21;57.00;102234.97;5104173;28;20059;-60
2022/07/07 09:59:01;;;;;;;7.38;1.70;;;;;;;19.23;56.93;102232.84;5098436;28;20044;-60
2022/07/07 10:01:31;;;;;;;6.90;1.70;;;;;;;19.25;56.85;102244.31;5101045;28;20048;-60
2022/07/07 10:04:01;;;;;;;3.95;1.05;;;;;;;19.25;56.75;102246.22;5102008;28;20066;-61
2022/07/07 10:06:32;;;;;;;3.25;1.00;;;;;;;19.24;57.04;102258.19;5104106;28;20060;-59
2022/07/07 10:09:03;;;;;;;4.95;1.10;;;;;;;19.25;56.93;102279.75;5111208;28;20045;-60
2022/07/07 10:11:39;;;;;;;2.25;0.70;;;;;;;19.24;57.60;102285.44;5102919;28;20105;-60
2022/07/07 10:14:13;;;;;;;5.50;1.20;;;;;;;19.22;58.40;102284.88;5101139;28;20113;-60
2022/07/07 10:16:43;;;;;;;3.53;1.08;;;;;;;19.19;58.41;102289.75;5095964;28;20045;-60
2022/07/07 10:19:12;;;;;;;3.90;0.95;;;;;;;19.18;58.96;102288.09;5113254;28;20120;-60
2022/07/07 10:21:44;;;;;;;8.48;1.85;;;;;;;19.18;59.34;102285.38;5101061;28;20056;-60
2022/07/07 10:24:13;;;;;;;5.45;1.30;;;;;;;19.18;59.50;102287.25;5091138;28;20497;-60
2022/07/07 10:26:49;;;;;;;7.20;1.92;;;;;;;19.15;59.85;102291.31;5097090;28;20052;-60
2022/07/07 10:29:17;;;;;;;5.30;1.83;;;;;;;19.18;60.23;102289.97;5103786;28;20172;-61
2022/07/07 10:31:51;;;;;;;4.93;1.70;;;;;;;19.16;60.39;102286.69;5102635;28;20290;-60
2022/07/07 10:34:19;;;;;;;5.90;1.42;;;;;;;19.17;60.30;102296.50;5101330;28;20048;-60
2022/07/07 10:37:02;;;;;;;5.03;1.40;;;;;;;19.17;60.14;102293.78;5104037;28;20052;-60
2022/07/07 10:39:34;;;;;;;3.28;1.00;;;;;;;19.15;59.69;102296.75;5090220;28;20055;-59
2022/07/07 10:42:19;;;;;;;5.30;1.40;;;;;;;19.20;59.83;102306.91;5103899;28;20095;-60
2022/07/07 10:44:49;;;;;;;4.40;1.20;;;;;;;19.19;59.78;102303.38;4737587;28;9999981;-60
2022/07/07 10:47:31;;;;;;;5.43;1.42;;;;;;;19.18;59.98;102312.63;5091884;28;20087;-60
2022/07/07 10:50:00;;;;;;;3.53;1.77;;;;;;;19.19;59.72;102308.00;5095784;28;20048;-61
2022/07/07 10:52:29;;;;;;;2.75;1.05;;;;;;;19.20;59.35;102317.81;5099120;28;20051;-61
2022/07/07 10:55:00;;;;;;;2.72;0.93;;;;;;;19.21;59.37;102322.22;5102782;28;20094;-61
2022/07/07 10:57:39;;;;;;;5.53;2.08;;;;;;;19.17;59.58;102321.88;5100339;28;20078;-61
2022/07/07 11:00:14;;;;;;;7.18;1.30;;;;;;;19.17;59.54;102321.88;5094181;28;20488;-61
2022/07/07 11:02:47;;;;;;;9.38;0.90;;;;;;;19.18;59.21;102318.06;5097118;28;20048;-60
2022/07/07 11:05:33;;;;;;;4.38;1.10;;;;;;;19.19;59.24;102336.06;5094132;28;20137;-60
2022/07/07 11:08:10;;;;;;;3.20;1.30;;;;;;;19.21;59.19;102335.00;5092175;28;20061;-60
2022/07/07 11:10:51;;;;;;;2.60;0.93;;;;;;;19.21;59.11;102337.72;5095622;28;20044;-61
2022/07/07 11:13:22;;;;;;;4.07;1.02;;;;;;;19.21;59.11;102343.19;5092158;28;20052;-61
2022/07/07 11:15:52;;;;;;;7.82;1.25;;;;;;;19.18;59.69;102348.06;5089654;28;20044;-61
2022/07/07 11:18:20;;;;;;;4.28;0.95;;;;;;;19.15;60.13;102353.16;5090395;28;20048;-60
2022/07/07 11:20:55;;;;;;;3.90;1.10;;;;;;;19.14;60.18;102360.50;5092320;28;20047;-60
2022/07/07 11:23:25;;;;;;;2.67;1.05;;;;;;;19.14;60.03;102355.06;5092779;28;20052;-61
2022/07/07 11:25:57;;;;;;;3.08;1.23;;;;;;;19.16;59.81;102352.09;5096405;28;20387;-61
2022/07/07 11:28:27;;;;;;;3.78;1.10;;;;;;;19.16;59.91;102363.81;5097075;28;20040;-61
2022/07/07 11:31:03;;;;;;;7.40;1.95;;;;;;;19.16;59.84;102363.00;5095597;28;20058;-61
2022/07/07 11:33:31;;;;;;;5.15;1.55;;;;;;;19.16;60.21;102360.25;5091136;28;20411;-62
2022/07/07 11:35:59;;;;;;;6.35;1.90;;;;;;;19.16;60.06;102354.81;5088214;28;20056;-61